sensor_id;sensor_type;location;lat;lon;timestamp;pressure;altitude;pressure_sealevel;temperature;humidity
32131;BME280;18639;50.716;7.086;2022-08-03T00:01:36;100348.63;;;20.07;86.12
32131;BME280;18639;50.716;7.086;2022-08-03T00:04:04;100382.84;;;20.32;85.63
32131;BME280;18639;50.716;7.086;2022-08-03T00:06:29;100387.94;;;20.33;85.81
32131;BME280;18639;50.716;7.086;2022-08-03T00:08:54;100384.47;;;20.33;86.33
32131;BME280;18639;50.716;7.086;2022-08-03T00:11:20;100370.81;;;20.21;85.96
32131;BME280;18639;50.716;7.086;2022-08-03T00:13:45;100376.88;;;20.22;85.94
32131;BME280;18639;50.716;7.086;2022-08-03T00:16:11;100378.38;;;20.24;85.89
32131;BME280;18639;50.716;7.086;2022-08-03T00:18:37;100370.31;;;20.17;86.41
32131;BME280;18639;50.716;7.086;2022-08-03T00:21:03;100370.94;;;20.19;86.53
32131;BME280;18639;50.716;7.086;2022-08-03T00:23:28;100376.88;;;20.22;86.35
32131;BME280;18639;50.716;7.086;2022-08-03T00:25:54;100374.41;;;20.20;86.63
32131;BME280;18639;50.716;7.086;2022-08-03T00:28:19;100358.31;;;20.07;86.56
32131;BME280;18639;50.716;7.086;2022-08-03T00:30:45;100348.44;;;20.01;87.28
32131;BME280;18639;50.716;7.086;2022-08-03T00:33:10;100359.75;;;20.01;87.68
32131;BME280;18639;50.716;7.086;2022-08-03T00:35:35;100371.09;;;20.10;87.39
32131;BME280;18639;50.716;7.086;2022-08-03T00:38:01;100374.06;;;20.07;87.49
32131;BME280;18639;50.716;7.086;2022-08-03T00:40:26;100370.44;;;20.08;87.51
32131;BME280;18639;50.716;7.086;2022-08-03T00:43:03;100364.03;;;20.02;87.55
32131;BME280;18639;50.716;7.086;2022-08-03T00:45:31;100367.31;;;20.04;87.41
32131;BME280;18639;50.716;7.086;2022-08-03T00:47:57;100366.47;;;19.96;87.35
32131;BME280;18639;50.716;7.086;2022-08-03T00:50:24;100359.28;;;19.98;87.12
32131;BME280;18639;50.716;7.086;2022-08-03T00:52:56;100364.16;;;19.93;87.00
32131;BME280;18639;50.716;7.086;2022-08-03T00:55:22;100364.53;;;19.98;87.60
32131;BME280;18639;50.716;7.086;2022-08-03T00:57:48;100364.00;;;19.94;87.86
32131;BME280;18639;50.716;7.086;2022-08-03T01:00:18;100356.94;;;19.87;88.33
32131;BME280;18639;50.716;7.086;2022-08-03T01:02:43;100362.19;;;19.87;88.85
32131;BME280;18639;50.716;7.086;2022-08-03T01:05:09;100361.84;;;19.82;88.45
32131;BME280;18639;50.716;7.086;2022-08-03T01:13:15;100362.47;;;19.75;88.56
32131;BME280;18639;50.716;7.086;2022-08-03T01:16:14;100358.34;;;19.73;88.31
32131;BME280;18639;50.716;7.086;2022-08-03T01:18:51;100360.31;;;19.71;88.13
32131;BME280;18639;50.716;7.086;2022-08-03T01:21:26;100355.38;;;19.68;88.60
32131;BME280;18639;50.716;7.086;2022-08-03T01:23:58;100361.59;;;19.67;88.60
32131;BME280;18639;50.716;7.086;2022-08-03T01:26:41;100358.13;;;19.66;88.83
32131;BME280;18639;50.716;7.086;2022-08-03T01:29:36;100335.50;;;19.57;89.28
32131;BME280;18639;50.716;7.086;2022-08-03T01:32:13;100357.16;;;19.67;89.39
32131;BME280;18639;50.716;7.086;2022-08-03T01:34:46;100355.03;;;19.63;89.61
32131;BME280;18639;50.716;7.086;2022-08-03T01:37:15;100347.31;;;19.61;89.75
32131;BME280;18639;50.716;7.086;2022-08-03T01:39:43;100366.00;;;19.66;89.95
32131;BME280;18639;50.716;7.086;2022-08-03T01:42:10;100349.28;;;19.59;89.73
32131;BME280;18639;50.716;7.086;2022-08-03T01:44:40;100350.41;;;19.57;89.58
32131;BME280;18639;50.716;7.086;2022-08-03T01:47:08;100333.44;;;19.43;90.15
32131;BME280;18639;50.716;7.086;2022-08-03T01:49:42;100346.94;;;19.48;90.11
32131;BME280;18639;50.716;7.086;2022-08-03T01:52:10;100357.09;;;19.51;89.72
32131;BME280;18639;50.716;7.086;2022-08-03T01:54:43;100350.53;;;19.47;89.78
32131;BME280;18639;50.716;7.086;2022-08-03T01:57:09;100348.19;;;19.44;89.67
32131;BME280;18639;50.716;7.086;2022-08-03T01:59:36;100333.38;;;19.35;90.60
32131;BME280;18639;50.716;7.086;2022-08-03T02:02:04;100343.84;;;19.35;90.93
32131;BME280;18639;50.716;7.086;2022-08-03T02:04:30;100347.44;;;19.34;90.88
32131;BME280;18639;50.716;7.086;2022-08-03T02:06:56;100326.44;;;19.26;90.78
32131;BME280;18639;50.716;7.086;2022-08-03T02:09:24;100337.97;;;19.33;91.04
32131;BME280;18639;50.716;7.086;2022-08-03T02:11:50;100336.25;;;19.24;91.05
32131;BME280;18639;50.716;7.086;2022-08-03T02:14:19;100326.72;;;19.15;90.74
32131;BME280;18639;50.716;7.086;2022-08-03T02:16:45;100349.34;;;19.24;90.71
32131;BME280;18639;50.716;7.086;2022-08-03T02:19:12;100332.31;;;19.20;90.86
32131;BME280;18639;50.716;7.086;2022-08-03T02:21:38;100342.28;;;19.16;91.40
32131;BME280;18639;50.716;7.086;2022-08-03T02:24:05;100341.31;;;19.17;91.33
32131;BME280;18639;50.716;7.086;2022-08-03T02:26:31;100338.16;;;19.14;91.32
32131;BME280;18639;50.716;7.086;2022-08-03T02:29:02;100348.97;;;19.11;91.49
32131;BME280;18639;50.716;7.086;2022-08-03T02:31:32;100349.19;;;19.17;91.72
32131;BME280;18639;50.716;7.086;2022-08-03T02:34:01;100331.56;;;19.02;91.53
32131;BME280;18639;50.716;7.086;2022-08-03T02:36:29;100345.66;;;19.09;91.44
32131;BME280;18639;50.716;7.086;2022-08-03T02:38:58;100335.19;;;19.09;91.15
32131;BME280;18639;50.716;7.086;2022-08-03T02:41:29;100302.25;;;18.80;91.06
32131;BME280;18639;50.716;7.086;2022-08-03T02:43:56;100335.19;;;19.09;90.79
32131;BME280;18639;50.716;7.086;2022-08-03T02:46:27;100337.16;;;19.07;91.23
32131;BME280;18639;50.716;7.086;2022-08-03T02:48:55;100333.19;;;19.03;91.11
32131;BME280;18639;50.716;7.086;2022-08-03T02:51:22;100330.88;;;19.00;91.25
32131;BME280;18639;50.716;7.086;2022-08-03T02:53:48;100330.88;;;19.00;91.48
32131;BME280;18639;50.716;7.086;2022-08-03T02:56:14;100292.84;;;18.70;91.28
32131;BME280;18639;50.716;7.086;2022-08-03T02:58:42;100325.56;;;18.91;91.26
32131;BME280;18639;50.716;7.086;2022-08-03T03:01:09;100315.34;;;18.80;91.09
32131;BME280;18639;50.716;7.086;2022-08-03T03:03:36;100328.50;;;18.88;90.92
32131;BME280;18639;50.716;7.086;2022-08-03T03:06:02;100329.47;;;18.87;91.26
32131;BME280;18639;50.716;7.086;2022-08-03T03:08:28;100291.28;;;18.59;91.79
32131;BME280;18639;50.716;7.086;2022-08-03T03:10:56;100316.34;;;18.79;91.90
32131;BME280;18639;50.716;7.086;2022-08-03T03:13:22;100310.09;;;18.80;92.22
32131;BME280;18639;50.716;7.086;2022-08-03T03:15:49;100325.88;;;18.88;92.00
32131;BME280;18639;50.716;7.086;2022-08-03T03:18:16;100333.75;;;18.88;90.90
32131;BME280;18639;50.716;7.086;2022-08-03T03:20:41;100327.47;;;18.81;91.36
32131;BME280;18639;50.716;7.086;2022-08-03T03:23:08;100340.25;;;18.84;91.73
32131;BME280;18639;50.716;7.086;2022-08-03T03:25:34;100326.81;;;18.79;92.00
32131;BME280;18639;50.716;7.086;2022-08-03T03:28:01;100331.72;;;18.82;91.71
32131;BME280;18639;50.716;7.086;2022-08-03T03:30:27;100308.84;;;18.67;91.39
32131;BME280;18639;50.716;7.086;2022-08-03T03:32:52;100326.44;;;18.74;91.46
32131;BME280;18639;50.716;7.086;2022-08-03T03:35:18;100315.59;;;18.69;92.18
32131;BME280;18639;50.716;7.086;2022-08-03T03:37:43;100333.84;;;18.79;92.47
32131;BME280;18639;50.716;7.086;2022-08-03T03:40:09;100323.75;;;18.66;92.61
32131;BME280;18639;50.716;7.086;2022-08-03T03:42:35;100311.56;;;18.57;92.45
32131;BME280;18639;50.716;7.086;2022-08-03T03:45:06;100326.50;;;18.65;92.41
32131;BME280;18639;50.716;7.086;2022-08-03T03:47:35;100337.28;;;18.62;92.77
32131;BME280;18639;50.716;7.086;2022-08-03T03:50:04;100328.25;;;18.56;92.69
32131;BME280;18639;50.716;7.086;2022-08-03T03:52:31;100311.75;;;18.46;93.13
32131;BME280;18639;50.716;7.086;2022-08-03T03:54:56;100319.75;;;18.44;93.30
32131;BME280;18639;50.716;7.086;2022-08-03T03:57:21;100309.28;;;18.44;93.48
32131;BME280;18639;50.716;7.086;2022-08-03T03:59:47;100322.75;;;18.49;93.38
32131;BME280;18639;50.716;7.086;2022-08-03T04:02:13;100331.53;;;18.58;93.56
32131;BME280;18639;50.716;7.086;2022-08-03T04:04:38;100335.78;;;18.59;94.01
32131;BME280;18639;50.716;7.086;2022-08-03T04:07:23;100328.53;;;18.53;93.91
32131;BME280;18639;50.716;7.086;2022-08-03T04:10:15;100326.88;;;18.52;94.33
32131;BME280;18639;50.716;7.086;2022-08-03T04:13:01;100336.38;;;18.53;94.45
32131;BME280;18639;50.716;7.086;2022-08-03T04:15:30;100328.53;;;18.53;94.63
32131;BME280;18639;50.716;7.086;2022-08-03T04:17:58;100337.06;;;18.55;94.62
32131;BME280;18639;50.716;7.086;2022-08-03T04:20:27;100330.19;;;18.54;94.63
32131;BME280;18639;50.716;7.086;2022-08-03T04:22:55;100329.22;;;18.55;94.54
32131;BME280;18639;50.716;7.086;2022-08-03T04:25:26;100331.00;;;18.55;94.81
32131;BME280;18639;50.716;7.086;2022-08-03T04:27:52;100333.03;;;18.61;94.57
32131;BME280;18639;50.716;7.086;2022-08-03T04:30:20;100335.50;;;18.62;95.03
32131;BME280;18639;50.716;7.086;2022-08-03T04:32:46;100291.06;;;18.35;94.77
32131;BME280;18639;50.716;7.086;2022-08-03T04:35:17;100335.94;;;18.58;94.96
32131;BME280;18639;50.716;7.086;2022-08-03T04:37:45;100335.03;;;18.67;95.19
32131;BME280;18639;50.716;7.086;2022-08-03T04:40:29;100338.84;;;18.72;94.90
32131;BME280;18639;50.716;7.086;2022-08-03T04:42:58;100342.28;;;18.73;95.30
32131;BME280;18639;50.716;7.086;2022-08-03T04:45:24;100334.22;;;18.66;95.24
32131;BME280;18639;50.716;7.086;2022-08-03T04:47:51;100333.94;;;18.69;94.96
32131;BME280;18639;50.716;7.086;2022-08-03T04:50:17;100345.41;;;18.76;95.30
32131;BME280;18639;50.716;7.086;2022-08-03T04:52:43;100337.88;;;18.73;94.75
32131;BME280;18639;50.716;7.086;2022-08-03T04:55:08;100345.13;;;18.79;95.31
32131;BME280;18639;50.716;7.086;2022-08-03T04:57:34;100340.19;;;18.76;95.36
32131;BME280;18639;50.716;7.086;2022-08-03T04:59:59;100346.31;;;18.85;95.77
32131;BME280;18639;50.716;7.086;2022-08-03T05:02:24;100330.53;;;18.77;95.58
32131;BME280;18639;50.716;7.086;2022-08-03T05:04:49;100352.56;;;18.92;95.41
32131;BME280;18639;50.716;7.086;2022-08-03T05:07:16;100353.78;;;18.98;94.83
32131;BME280;18639;50.716;7.086;2022-08-03T05:09:42;100353.47;;;19.01;94.34
32131;BME280;18639;50.716;7.086;2022-08-03T05:12:08;100344.13;;;18.98;95.12
32131;BME280;18639;50.716;7.086;2022-08-03T05:14:34;100357.78;;;19.10;94.95
32131;BME280;18639;50.716;7.086;2022-08-03T05:17:01;100353.06;;;19.13;95.07
32131;BME280;18639;50.716;7.086;2022-08-03T05:19:27;100333.84;;;19.05;94.95
32131;BME280;18639;50.716;7.086;2022-08-03T05:21:52;100348.03;;;19.20;94.56
32131;BME280;18639;50.716;7.086;2022-08-03T05:24:18;100346.09;;;19.22;94.17
32131;BME280;18639;50.716;7.086;2022-08-03T05:26:43;100343.22;;;19.33;94.04
32131;BME280;18639;50.716;7.086;2022-08-03T05:29:08;100359.94;;;19.40;93.82
32131;BME280;18639;50.716;7.086;2022-08-03T05:31:33;100351.50;;;19.46;93.64
32131;BME280;18639;50.716;7.086;2022-08-03T05:33:59;100334.25;;;19.44;93.44
32131;BME280;18639;50.716;7.086;2022-08-03T05:36:24;100341.06;;;19.54;93.77
32131;BME280;18639;50.716;7.086;2022-08-03T05:38:49;100357.16;;;19.67;93.80
32131;BME280;18639;50.716;7.086;2022-08-03T05:41:15;100327.81;;;19.64;93.39
32131;BME280;18639;50.716;7.086;2022-08-03T05:43:40;100333.41;;;19.69;92.92
32131;BME280;18639;50.716;7.086;2022-08-03T05:46:05;100354.47;;;19.85;92.80
32131;BME280;18639;50.716;7.086;2022-08-03T05:48:31;100344.47;;;19.89;93.31
32131;BME280;18639;50.716;7.086;2022-08-03T05:50:56;100349.28;;;20.01;93.10
32131;BME280;18639;50.716;7.086;2022-08-03T05:53:21;100345.84;;;20.09;93.06
32131;BME280;18639;50.716;7.086;2022-08-03T05:55:47;100330.09;;;20.09;92.57
32131;BME280;18639;50.716;7.086;2022-08-03T05:58:12;100344.75;;;20.28;92.32
32131;BME280;18639;50.716;7.086;2022-08-03T06:00:37;100345.41;;;20.30;91.90
32131;BME280;18639;50.716;7.086;2022-08-03T06:03:03;100351.66;;;20.37;92.32
32131;BME280;18639;50.716;7.086;2022-08-03T06:05:28;100357.25;;;20.42;92.41
32131;BME280;18639;50.716;7.086;2022-08-03T06:07:53;100355.97;;;20.46;92.60
32131;BME280;18639;50.716;7.086;2022-08-03T06:10:19;100347.28;;;20.45;92.04
32131;BME280;18639;50.716;7.086;2022-08-03T06:12:44;100369.28;;;20.61;92.39
32131;BME280;18639;50.716;7.086;2022-08-03T06:15:13;100360.91;;;20.65;91.47
32131;BME280;18639;50.716;7.086;2022-08-03T06:17:48;100372.06;;;20.75;91.59
32131;BME280;18639;50.716;7.086;2022-08-03T06:20:19;100363.69;;;20.80;91.92
32131;BME280;18639;50.716;7.086;2022-08-03T06:22:46;100370.25;;;20.92;92.65
32131;BME280;18639;50.716;7.086;2022-08-03T06:25:12;100371.25;;;20.99;93.27
32131;BME280;18639;50.716;7.086;2022-08-03T06:27:37;100364.00;;;21.01;92.67
32131;BME280;18639;50.716;7.086;2022-08-03T06:30:05;100363.66;;;21.12;92.16
32131;BME280;18639;50.716;7.086;2022-08-03T06:32:31;100364.69;;;21.19;91.09
32131;BME280;18639;50.716;7.086;2022-08-03T06:34:58;100348.25;;;21.17;90.87
32131;BME280;18639;50.716;7.086;2022-08-03T06:37:23;100363.00;;;21.34;90.38
32131;BME280;18639;50.716;7.086;2022-08-03T06:39:48;100371.69;;;21.51;89.44
32131;BME280;18639;50.716;7.086;2022-08-03T06:42:14;100356.84;;;21.58;87.50
32131;BME280;18639;50.716;7.086;2022-08-03T06:44:39;100352.09;;;21.62;85.82
32131;BME280;18639;50.716;7.086;2022-08-03T06:47:04;100349.91;;;21.73;83.93
32131;BME280;18639;50.716;7.086;2022-08-03T06:49:30;100373.34;;;21.99;84.89
32131;BME280;18639;50.716;7.086;2022-08-03T06:51:55;100347.31;;;22.04;86.29
32131;BME280;18639;50.716;7.086;2022-08-03T06:54:21;100359.75;;;22.18;86.10
32131;BME280;18639;50.716;7.086;2022-08-03T06:56:48;100369.13;;;22.44;86.20
32131;BME280;18639;50.716;7.086;2022-08-03T06:59:13;100347.63;;;22.55;82.39
32131;BME280;18639;50.716;7.086;2022-08-03T07:01:38;100358.75;;;22.73;81.43
32131;BME280;18639;50.716;7.086;2022-08-03T07:04:04;100360.25;;;22.90;80.66
32131;BME280;18639;50.716;7.086;2022-08-03T07:06:30;100352.81;;;23.08;79.19
32131;BME280;18639;50.716;7.086;2022-08-03T07:08:55;100320.72;;;23.05;79.39
32131;BME280;18639;50.716;7.086;2022-08-03T07:11:21;100359.16;;;23.52;78.92
32131;BME280;18639;50.716;7.086;2022-08-03T07:13:46;100358.06;;;23.75;79.75
32131;BME280;18639;50.716;7.086;2022-08-03T07:16:11;100341.75;;;23.86;77.58
32131;BME280;18639;50.716;7.086;2022-08-03T07:18:38;100349.34;;;24.11;77.64
32131;BME280;18639;50.716;7.086;2022-08-03T07:21:03;100348.94;;;24.28;75.14
32131;BME280;18639;50.716;7.086;2022-08-03T07:23:28;100360.84;;;24.60;73.60
32131;BME280;18639;50.716;7.086;2022-08-03T07:25:53;100347.38;;;24.77;76.16
32131;BME280;18639;50.716;7.086;2022-08-03T07:28:19;100367.00;;;25.10;75.07
32131;BME280;18639;50.716;7.086;2022-08-03T07:30:45;100364.66;;;25.28;70.77
32131;BME280;18639;50.716;7.086;2022-08-03T07:33:10;100364.34;;;25.44;69.76
32131;BME280;18639;50.716;7.086;2022-08-03T07:35:35;100369.00;;;25.64;68.27
32131;BME280;18639;50.716;7.086;2022-08-03T07:38:01;100353.56;;;25.74;64.68
32131;BME280;18639;50.716;7.086;2022-08-03T07:40:26;100353.00;;;25.85;64.86
32131;BME280;18639;50.716;7.086;2022-08-03T07:42:51;100355.31;;;26.01;66.26
32131;BME280;18639;50.716;7.086;2022-08-03T07:45:17;100359.41;;;26.17;66.29
32131;BME280;18639;50.716;7.086;2022-08-03T07:47:42;100359.69;;;26.35;65.48
32131;BME280;18639;50.716;7.086;2022-08-03T07:50:07;100336.25;;;26.38;63.36
32131;BME280;18639;50.716;7.086;2022-08-03T07:52:33;100341.97;;;26.55;59.91
32131;BME280;18639;50.716;7.086;2022-08-03T07:55:17;100348.50;;;26.72;61.95
32131;BME280;18639;50.716;7.086;2022-08-03T07:57:43;100345.28;;;26.90;61.10
32131;BME280;18639;50.716;7.086;2022-08-03T08:00:16;100342.22;;;27.06;58.96
32131;BME280;18639;50.716;7.086;2022-08-03T08:02:42;100342.41;;;27.11;58.98
32131;BME280;18639;50.716;7.086;2022-08-03T08:05:08;100340.72;;;27.37;58.50
32131;BME280;18639;50.716;7.086;2022-08-03T08:07:35;100349.22;;;27.72;59.26
32131;BME280;18639;50.716;7.086;2022-08-03T08:10:06;100333.22;;;27.78;57.20
32131;BME280;18639;50.716;7.086;2022-08-03T08:12:31;100338.06;;;27.94;57.53
32131;BME280;18639;50.716;7.086;2022-08-03T08:14:57;100337.56;;;28.11;55.74
32131;BME280;18639;50.716;7.086;2022-08-03T08:17:22;100329.69;;;28.35;55.99
32131;BME280;18639;50.716;7.086;2022-08-03T08:19:47;100344.47;;;28.56;52.90
32131;BME280;18639;50.716;7.086;2022-08-03T08:22:13;100337.25;;;28.63;52.65
32131;BME280;18639;50.716;7.086;2022-08-03T08:24:38;100334.31;;;28.71;51.66
32131;BME280;18639;50.716;7.086;2022-08-03T08:27:04;100335.44;;;28.88;53.07
32131;BME280;18639;50.716;7.086;2022-08-03T08:29:29;100331.34;;;28.86;51.75
32131;BME280;18639;50.716;7.086;2022-08-03T08:31:54;100323.16;;;28.87;53.73
32131;BME280;18639;50.716;7.086;2022-08-03T08:34:20;100331.03;;;29.01;53.30
32131;BME280;18639;50.716;7.086;2022-08-03T08:36:45;100340.34;;;29.10;52.05
32131;BME280;18639;50.716;7.086;2022-08-03T08:39:10;100319.34;;;29.02;49.58
32131;BME280;18639;50.716;7.086;2022-08-03T08:41:36;100314.47;;;28.99;49.58
32131;BME280;18639;50.716;7.086;2022-08-03T08:44:01;100316.41;;;29.10;50.92
32131;BME280;18639;50.716;7.086;2022-08-03T08:46:31;100331.75;;;29.33;47.72
32131;BME280;18639;50.716;7.086;2022-08-03T08:48:58;100336.41;;;29.55;48.05
32131;BME280;18639;50.716;7.086;2022-08-03T08:51:27;100339.06;;;29.74;46.14
32131;BME280;18639;50.716;7.086;2022-08-03T08:53:55;100321.34;;;29.79;47.37
32131;BME280;18639;50.716;7.086;2022-08-03T08:56:24;100341.69;;;30.10;46.74
32131;BME280;18639;50.716;7.086;2022-08-03T08:58:58;100334.03;;;30.13;47.06
32131;BME280;18639;50.716;7.086;2022-08-03T09:01:24;100327.59;;;30.33;47.72
32131;BME280;18639;50.716;7.086;2022-08-03T09:03:49;100325.81;;;30.57;47.13
32131;BME280;18639;50.716;7.086;2022-08-03T09:06:15;100315.75;;;30.82;45.60
32131;BME280;18639;50.716;7.086;2022-08-03T09:08:41;100328.78;;;31.13;45.18
32131;BME280;18639;50.716;7.086;2022-08-03T09:11:06;100337.75;;;31.47;42.82
32131;BME280;18639;50.716;7.086;2022-08-03T09:13:32;100336.88;;;31.82;42.62
32131;BME280;18639;50.716;7.086;2022-08-03T09:16:15;100322.84;;;32.03;41.63
32131;BME280;18639;50.716;7.086;2022-08-03T09:18:42;100321.59;;;32.22;41.43
32131;BME280;18639;50.716;7.086;2022-08-03T09:23:52;100314.34;;;32.84;39.57
32131;BME280;18639;50.716;7.086;2022-08-03T09:26:21;100318.66;;;33.46;40.25
32131;BME280;18639;50.716;7.086;2022-08-03T09:29:00;100308.88;;;33.56;38.50
32131;BME280;18639;50.716;7.086;2022-08-03T09:31:39;100326.81;;;33.99;38.62
32131;BME280;18639;50.716;7.086;2022-08-03T09:34:08;100320.97;;;34.29;36.50
32131;BME280;18639;50.716;7.086;2022-08-03T09:36:45;100322.19;;;34.85;35.78
32131;BME280;18639;50.716;7.086;2022-08-03T09:39:20;100320.41;;;35.53;34.48
32131;BME280;18639;50.716;7.086;2022-08-03T09:41:48;100322.41;;;35.83;33.72
32131;BME280;18639;50.716;7.086;2022-08-03T09:44:38;100305.28;;;36.35;31.58
32131;BME280;18639;50.716;7.086;2022-08-03T09:47:05;100310.06;;;36.88;31.69
32131;BME280;18639;50.716;7.086;2022-08-03T09:49:31;100318.38;;;37.17;31.10
32131;BME280;18639;50.716;7.086;2022-08-03T09:52:00;100321.91;;;37.18;30.37
32131;BME280;18639;50.716;7.086;2022-08-03T09:54:29;100306.69;;;37.37;29.93
32131;BME280;18639;50.716;7.086;2022-08-03T09:56:55;100324.69;;;37.51;29.62
32131;BME280;18639;50.716;7.086;2022-08-03T09:59:26;100306.56;;;37.67;30.13
32131;BME280;18639;50.716;7.086;2022-08-03T10:01:52;100319.63;;;37.45;29.53
32131;BME280;18639;50.716;7.086;2022-08-03T10:04:18;100317.31;;;37.72;28.66
32131;BME280;18639;50.716;7.086;2022-08-03T10:06:45;100306.50;;;37.77;29.50
32131;BME280;18639;50.716;7.086;2022-08-03T10:09:13;100308.28;;;37.97;29.28
32131;BME280;18639;50.716;7.086;2022-08-03T10:11:39;100307.66;;;37.71;29.17
32131;BME280;18639;50.716;7.086;2022-08-03T10:14:08;100294.69;;;36.99;28.78
32131;BME280;18639;50.716;7.086;2022-08-03T10:16:38;100301.94;;;37.03;29.71
32131;BME280;18639;50.716;7.086;2022-08-03T10:19:05;100314.41;;;36.84;29.34
32131;BME280;18639;50.716;7.086;2022-08-03T10:21:35;100303.94;;;36.67;29.96
32131;BME280;18639;50.716;7.086;2022-08-03T10:24:03;100305.53;;;36.48;30.70
32131;BME280;18639;50.716;7.086;2022-08-03T10:26:31;100295.25;;;36.91;30.99
32131;BME280;18639;50.716;7.086;2022-08-03T10:28:59;100298.06;;;37.35;30.65
32131;BME280;18639;50.716;7.086;2022-08-03T10:31:25;100300.72;;;37.50;29.05
32131;BME280;18639;50.716;7.086;2022-08-03T10:33:56;100297.75;;;37.46;29.52
32131;BME280;18639;50.716;7.086;2022-08-03T10:36:23;100299.72;;;37.85;28.72
32131;BME280;18639;50.716;7.086;2022-08-03T10:38:51;100281.06;;;37.88;28.63
32131;BME280;18639;50.716;7.086;2022-08-03T10:41:22;100286.09;;;37.66;28.59
32131;BME280;18639;50.716;7.086;2022-08-03T10:43:58;100281.19;;;37.68;28.38
32131;BME280;18639;50.716;7.086;2022-08-03T10:46:27;100280.34;;;37.73;29.20
32131;BME280;18639;50.716;7.086;2022-08-03T10:48:53;100274.44;;;37.71;29.63
32131;BME280;18639;50.716;7.086;2022-08-03T10:51:20;100274.94;;;37.29;29.16
32131;BME280;18639;50.716;7.086;2022-08-03T10:53:46;100275.06;;;36.83;28.85
32131;BME280;18639;50.716;7.086;2022-08-03T10:56:37;100269.75;;;36.38;30.49
32131;BME280;18639;50.716;7.086;2022-08-03T11:02:12;100254.09;;;34.64;31.04
32131;BME280;18639;50.716;7.086;2022-08-03T11:04:39;100252.13;;;34.18;32.64
32131;BME280;18639;50.716;7.086;2022-08-03T11:07:22;100256.06;;;33.78;33.38
32131;BME280;18639;50.716;7.086;2022-08-03T11:09:52;100255.97;;;33.68;33.21
32131;BME280;18639;50.716;7.086;2022-08-03T11:14:52;100259.31;;;33.15;34.76
32131;BME280;18639;50.716;7.086;2022-08-03T11:17:18;100239.63;;;33.05;34.57
32131;BME280;18639;50.716;7.086;2022-08-03T11:19:45;100231.78;;;32.98;34.74
32131;BME280;18639;50.716;7.086;2022-08-03T11:22:11;100250.94;;;32.68;35.95
32131;BME280;18639;50.716;7.086;2022-08-03T11:37:34;100253.06;;;31.59;38.21
32131;BME280;18639;50.716;7.086;2022-08-03T11:39:59;100245.72;;;31.55;38.59
32131;BME280;18639;50.716;7.086;2022-08-03T11:44:58;100250.97;;;31.50;38.65
32131;BME280;18639;50.716;7.086;2022-08-03T11:47:26;100245.06;;;31.48;38.18
32131;BME280;18639;50.716;7.086;2022-08-03T11:49:54;100241.09;;;31.62;38.40
32131;BME280;18639;50.716;7.086;2022-08-03T11:52:21;100241.09;;;31.62;38.37
32131;BME280;18639;50.716;7.086;2022-08-03T11:54:50;100243.56;;;31.52;38.20
32131;BME280;18639;50.716;7.086;2022-08-03T11:57:36;100220.72;;;31.32;38.20
32131;BME280;18639;50.716;7.086;2022-08-03T12:00:17;100216.91;;;31.28;37.88
32131;BME280;18639;50.716;7.086;2022-08-03T12:02:55;100215.38;;;31.32;38.50
32131;BME280;18639;50.716;7.086;2022-08-03T12:05:20;100223.59;;;31.43;38.60
32131;BME280;18639;50.716;7.086;2022-08-03T12:07:56;100241.94;;;31.51;37.95
32131;BME280;18639;50.716;7.086;2022-08-03T12:10:21;100229.78;;;31.31;38.38
32131;BME280;18639;50.716;7.086;2022-08-03T12:12:57;100232.22;;;31.33;37.50
32131;BME280;18639;50.716;7.086;2022-08-03T12:15:30;100223.19;;;31.22;36.95
32131;BME280;18639;50.716;7.086;2022-08-03T12:17:58;100223.06;;;31.29;38.13
32131;BME280;18639;50.716;7.086;2022-08-03T12:20:25;100210.03;;;31.32;37.40
32131;BME280;18639;50.716;7.086;2022-08-03T12:22:51;100198.66;;;31.25;36.68
32131;BME280;18639;50.716;7.086;2022-08-03T12:25:25;100219.00;;;31.26;37.30
32131;BME280;18639;50.716;7.086;2022-08-03T12:27:51;100213.53;;;31.33;37.24
32131;BME280;18639;50.716;7.086;2022-08-03T12:30:17;100217.13;;;31.27;37.84
32131;BME280;18639;50.716;7.086;2022-08-03T12:32:43;100196.78;;;31.09;37.97
32131;BME280;18639;50.716;7.086;2022-08-03T12:35:09;100200.47;;;31.20;38.36
32131;BME280;18639;50.716;7.086;2022-08-03T12:37:35;100216.97;;;31.45;37.58
32131;BME280;18639;50.716;7.086;2022-08-03T12:40:02;100191.72;;;31.24;37.98
32131;BME280;18639;50.716;7.086;2022-08-03T12:42:33;100208.81;;;31.52;36.63
32131;BME280;18639;50.716;7.086;2022-08-03T12:44:59;100212.94;;;31.31;37.64
32131;BME280;18639;50.716;7.086;2022-08-03T12:47:24;100207.19;;;31.11;38.79
32131;BME280;18639;50.716;7.086;2022-08-03T12:49:51;100195.38;;;31.07;38.26
32131;BME280;18639;50.716;7.086;2022-08-03T12:52:20;100207.06;;;31.17;37.41
32131;BME280;18639;50.716;7.086;2022-08-03T12:54:56;100200.00;;;31.11;37.83
32131;BME280;18639;50.716;7.086;2022-08-03T12:57:22;100211.50;;;31.00;38.42
32131;BME280;18639;50.716;7.086;2022-08-03T12:59:47;100217.09;;;30.87;38.03
32131;BME280;18639;50.716;7.086;2022-08-03T13:02:23;100205.72;;;30.80;38.88
32131;BME280;18639;50.716;7.086;2022-08-03T13:04:49;100206.22;;;30.77;39.11
32131;BME280;18639;50.716;7.086;2022-08-03T13:07:16;100204.47;;;30.82;39.91
32131;BME280;18639;50.716;7.086;2022-08-03T13:09:53;100202.94;;;30.86;38.39
32131;BME280;18639;50.716;7.086;2022-08-03T13:12:24;100201.31;;;30.85;38.49
32131;BME280;18639;50.716;7.086;2022-08-03T13:14:53;100207.69;;;30.84;38.72
32131;BME280;18639;50.716;7.086;2022-08-03T13:17:19;100198.31;;;30.82;39.03
32131;BME280;18639;50.716;7.086;2022-08-03T13:19:45;100189.22;;;30.83;38.94
32131;BME280;18639;50.716;7.086;2022-08-03T13:22:15;100195.38;;;30.83;39.93
32131;BME280;18639;50.716;7.086;2022-08-03T13:24:42;100179.53;;;30.77;40.75